createdAt,value
2023-03-16T00:00:55.912Z,74.57
2023-03-16T00:03:23.471Z,74.49
2023-03-16T00:05:54.166Z,74.06
2023-03-16T00:08:21.571Z,73.97
2023-03-16T00:10:49.372Z,74.75
2023-03-16T00:13:23.972Z,74.95
2023-03-16T00:15:58.900Z,76.75
2023-03-16T00:18:29.136Z,77.54
2023-03-16T00:21:05.405Z,77.19
2023-03-16T00:23:35.901Z,77.15
2023-03-16T00:26:08.353Z,77.55
2023-03-16T00:28:36.880Z,78.46
2023-03-16T00:31:08.264Z,78.35
2023-03-16T00:33:35.694Z,77.50
2023-03-16T00:36:05.481Z,77.93
2023-03-16T00:38:36.492Z,78.21
2023-03-16T00:41:07.751Z,78.35
2023-03-16T00:43:46.674Z,78.12
2023-03-16T00:46:17.878Z,78.67
2023-03-16T00:48:47.426Z,78.34
2023-03-16T00:51:18.053Z,78.18
2023-03-16T00:53:46.781Z,78.62
2023-03-16T00:56:14.814Z,78.54
2023-03-16T00:58:43.448Z,78.65
2023-03-16T01:01:19.630Z,78.62
2023-03-16T01:03:47.492Z,78.34
2023-03-16T01:06:20.191Z,78.33
2023-03-16T01:08:47.424Z,78.85
2023-03-16T01:11:20.627Z,78.52
2023-03-16T01:13:50.079Z,78.25
2023-03-16T01:16:19.101Z,78.43
2023-03-16T01:18:47.590Z,79.01
2023-03-16T01:21:16.106Z,78.80
2023-03-16T01:23:44.356Z,79.03
2023-03-16T01:26:12.686Z,80.02
2023-03-16T01:28:39.934Z,79.63
2023-03-16T01:31:11.720Z,79.25
2023-03-16T01:33:39.369Z,79.06
2023-03-16T01:36:14.221Z,79.21
2023-03-16T01:38:42.299Z,79.35
2023-03-16T01:41:10.635Z,79.52
2023-03-16T01:43:40.923Z,80.02
2023-03-16T01:46:19.101Z,79.38
2023-03-16T01:49:19.987Z,80.22
2023-03-16T01:52:08.653Z,79.84
2023-03-16T01:54:45.822Z,79.71
2023-03-16T01:57:22.673Z,79.92
2023-03-16T01:59:54.491Z,79.80
2023-03-16T02:02:30.249Z,79.65
2023-03-16T02:05:09.825Z,79.98
2023-03-16T02:07:46.973Z,81.10
2023-03-16T02:10:18.391Z,80.63
2023-03-16T02:12:47.395Z,80.25
2023-03-16T02:15:15.328Z,80.56
2023-03-16T02:17:46.308Z,80.75
2023-03-16T02:20:19.168Z,80.65
2023-03-16T02:22:54.164Z,80.67
2023-03-16T02:25:30.224Z,81.07
2023-03-16T02:28:20.341Z,81.38
2023-03-16T02:30:48.771Z,81.57
2023-03-16T02:33:19.602Z,81.43
2023-03-16T02:35:47.010Z,81.60
2023-03-16T02:38:14.642Z,82.72
2023-03-16T02:40:43.987Z,82.48
2023-03-16T02:43:16.888Z,82.23
2023-03-16T02:45:51.398Z,82.34
2023-03-16T02:48:32.343Z,82.60
2023-03-16T02:51:00.001Z,82.20
2023-03-16T02:53:28.133Z,82.58
2023-03-16T02:55:55.523Z,82.43
2023-03-16T02:58:23.119Z,83.53
2023-03-16T03:00:50.623Z,84.44
2023-03-16T03:03:18.972Z,84.53
2023-03-16T03:05:46.406Z,84.19
2023-03-16T03:08:14.626Z,84.46
2023-03-16T03:10:41.917Z,84.62
2023-03-16T03:13:09.476Z,84.42
2023-03-16T03:15:36.768Z,84.60
2023-03-16T03:18:04.508Z,84.59
2023-03-16T03:20:31.894Z,85.19
2023-03-16T03:22:59.548Z,84.85
2023-03-16T03:25:26.874Z,84.92
2023-03-16T03:27:54.854Z,85.43
2023-03-16T03:30:24.929Z,85.05
2023-03-16T03:32:52.733Z,84.61
2023-03-16T03:35:21.516Z,85.16
2023-03-16T03:37:50.548Z,85.05
2023-03-16T03:40:20.199Z,84.89
2023-03-16T03:42:48.442Z,84.75
2023-03-16T03:45:16.588Z,84.84
2023-03-16T03:47:44.607Z,85.21
2023-03-16T03:50:14.015Z,85.74
2023-03-16T03:52:41.845Z,85.60
2023-03-16T03:55:10.817Z,85.62
2023-03-16T03:57:38.338Z,85.67
2023-03-16T04:00:09.858Z,86.99
2023-03-16T04:02:38.993Z,87.64
2023-03-16T04:05:07.903Z,88.24
2023-03-16T04:07:35.612Z,88.26
2023-03-16T04:10:03.114Z,88.96
2023-03-16T04:12:30.656Z,89.03
2023-03-16T04:14:58.015Z,88.58
2023-03-16T04:17:25.784Z,88.29
2023-03-16T04:19:53.064Z,88.38
2023-03-16T04:22:23.266Z,88.67
2023-03-16T04:24:52.330Z,88.79
2023-03-16T04:27:19.864Z,89.02
2023-03-16T04:29:47.175Z,88.96
2023-03-16T04:32:14.761Z,89.72
2023-03-16T04:34:43.915Z,89.34
2023-03-16T04:37:12.004Z,89.23
2023-03-16T04:39:39.411Z,89.17
2023-03-16T04:42:07.240Z,89.66
2023-03-16T04:44:34.467Z,89.85
2023-03-16T04:47:05.039Z,89.63
2023-03-16T04:49:32.288Z,89.67
2023-03-16T04:52:09.711Z,89.66
2023-03-16T04:54:37.004Z,89.19
2023-03-16T04:57:05.791Z,88.92
2023-03-16T04:59:33.152Z,89.01
2023-03-16T05:02:01.108Z,88.70
2023-03-16T05:04:28.554Z,88.73
2023-03-16T05:06:56.121Z,88.75
2023-03-16T05:09:23.367Z,88.49
2023-03-16T05:11:50.967Z,88.24
2023-03-16T05:14:18.276Z,88.44
2023-03-16T05:16:45.798Z,88.26
2023-03-16T05:19:13.082Z,88.31
2023-03-16T05:21:40.683Z,88.14
2023-03-16T05:24:08.627Z,88.65
2023-03-16T05:26:36.191Z,88.38
2023-03-16T05:29:03.737Z,88.31
2023-03-16T05:31:35.016Z,88.33
2023-03-16T05:34:02.513Z,88.02
2023-03-16T05:36:30.112Z,87.94
2023-03-16T05:38:58.365Z,87.69
2023-03-16T05:41:25.960Z,87.89
2023-03-16T05:43:53.279Z,87.26
2023-03-16T05:46:21.071Z,86.90
2023-03-16T05:48:48.383Z,87.03
2023-03-16T05:51:16.075Z,86.73
2023-03-16T05:53:46.662Z,86.69
2023-03-16T05:56:14.236Z,86.60
2023-03-16T05:58:42.337Z,86.38
2023-03-16T06:01:11.338Z,86.72
2023-03-16T06:03:38.863Z,86.18
2023-03-16T06:06:06.595Z,86.56
2023-03-16T06:08:33.829Z,87.00
2023-03-16T06:11:01.566Z,86.98
2023-03-16T06:13:28.790Z,86.20
2023-03-16T06:15:56.415Z,87.20
2023-03-16T06:18:23.702Z,87.41
2023-03-16T06:20:51.525Z,87.13
2023-03-16T06:23:20.411Z,86.94
2023-03-16T06:25:49.120Z,86.60
2023-03-16T06:28:16.973Z,86.15
2023-03-16T06:30:44.475Z,86.33
2023-03-16T06:33:11.799Z,85.78
2023-03-16T06:35:39.515Z,85.50
2023-03-16T06:38:06.801Z,85.11
2023-03-16T06:40:34.477Z,83.90
2023-03-16T06:43:02.208Z,83.92
2023-03-16T06:45:29.905Z,83.26
2023-03-16T06:47:57.248Z,82.90
2023-03-16T06:50:25.379Z,82.13
2023-03-16T06:52:52.751Z,81.04
2023-03-16T06:55:20.407Z,81.07
2023-03-16T06:57:47.734Z,80.38
2023-03-16T07:00:16.207Z,79.16
2023-03-16T07:02:43.960Z,78.09
2023-03-16T07:05:15.214Z,76.73
2023-03-16T07:07:43.734Z,74.26
2023-03-16T07:10:17.692Z,72.82
2023-03-16T07:12:45.708Z,70.77
2023-03-16T07:15:14.265Z,69.56
2023-03-16T07:17:42.723Z,68.23
2023-03-16T07:20:12.925Z,68.32
2023-03-16T07:22:41.921Z,67.93
2023-03-16T07:25:11.567Z,67.14
2023-03-16T07:27:39.037Z,67.46
2023-03-16T07:30:07.520Z,68.09
2023-03-16T07:32:34.899Z,67.42
2023-03-16T07:35:02.570Z,67.50
2023-03-16T07:37:29.875Z,66.78
2023-03-16T07:39:57.466Z,65.32
2023-03-16T07:42:24.771Z,55.32
2023-03-16T07:44:52.384Z,54.00
2023-03-16T07:47:19.853Z,51.25
2023-03-16T07:49:47.419Z,49.73
2023-03-16T07:52:14.698Z,43.85
2023-03-16T07:54:45.057Z,39.27
2023-03-16T07:57:12.333Z,35.77
2023-03-16T07:59:40.411Z,36.47
2023-03-16T08:02:16.254Z,36.66
2023-03-16T08:04:45.284Z,40.62
2023-03-16T08:07:15.047Z,42.93
2023-03-16T08:09:43.801Z,45.00
2023-03-16T08:12:11.964Z,44.67
2023-03-16T08:14:39.724Z,44.76
2023-03-16T08:17:07.656Z,43.59
2023-03-16T08:19:35.272Z,35.13
2023-03-16T08:22:03.802Z,30.75
2023-03-16T08:24:33.234Z,30.12
2023-03-16T08:27:01.179Z,30.87
2023-03-16T08:29:29.104Z,31.71
2023-03-16T08:31:57.645Z,30.62
2023-03-16T08:34:27.019Z,31.48
2023-03-16T08:36:55.450Z,32.05
2023-03-16T08:39:23.178Z,33.41
2023-03-16T08:41:51.148Z,34.39
2023-03-16T08:44:20.191Z,34.96
2023-03-16T08:46:47.616Z,30.45
2023-03-16T08:49:15.482Z,25.75
2023-03-16T08:51:44.763Z,22.83
2023-03-16T08:54:13.080Z,21.05
2023-03-16T08:56:40.448Z,19.19
2023-03-16T08:59:14.150Z,16.86
2023-03-16T09:01:50.999Z,19.19
2023-03-16T09:04:18.792Z,17.31
2023-03-16T09:06:55.812Z,15.58
2023-03-16T09:09:31.205Z,17.85
2023-03-16T09:11:59.104Z,17.28
2023-03-16T09:14:26.825Z,15.88
2023-03-16T09:16:54.389Z,17.14
2023-03-16T09:19:22.954Z,15.78
2023-03-16T09:21:50.400Z,19.51
2023-03-16T09:24:18.557Z,19.00
2023-03-16T09:26:45.928Z,20.42
2023-03-16T09:29:14.860Z,18.51
2023-03-16T09:31:43.456Z,18.00
2023-03-16T09:34:11.944Z,21.58
2023-03-16T09:36:39.515Z,24.98
2023-03-16T09:39:07.705Z,26.00
2023-03-16T09:42:10.306Z,21.47
2023-03-16T09:45:11.283Z,15.45
2023-03-16T09:47:41.945Z,14.84
2023-03-16T09:50:24.439Z,19.79
2023-03-16T09:53:27.142Z,23.18
2023-03-16T09:56:16.891Z,18.76
2023-03-16T09:58:44.345Z,16.14
2023-03-16T10:01:15.076Z,13.80
2023-03-16T10:03:59.114Z,12.94
2023-03-16T10:06:28.322Z,13.98
2023-03-16T10:09:20.484Z,19.05
2023-03-16T10:11:56.932Z,22.16
2023-03-16T10:14:51.191Z,24.12
2023-03-16T10:17:28.450Z,24.45
2023-03-16T10:20:23.703Z,25.73
2023-03-16T10:22:53.119Z,27.41
2023-03-16T10:25:33.163Z,29.30
2023-03-16T10:28:01.552Z,30.41
2023-03-16T10:30:37.553Z,30.48
2023-03-16T10:33:27.778Z,17.69
2023-03-16T10:36:24.365Z,13.63
2023-03-16T10:39:00.793Z,13.14
2023-03-16T10:41:38.414Z,16.95
2023-03-16T10:44:27.331Z,20.53
2023-03-16T10:47:08.407Z,21.80
2023-03-16T10:49:44.510Z,20.96
2023-03-16T10:52:20.581Z,16.47
2023-03-16T10:55:10.791Z,20.04
2023-03-16T10:57:43.692Z,23.18
2023-03-16T11:00:13.938Z,24.71
2023-03-16T11:02:42.657Z,23.95
2023-03-16T11:05:32.845Z,14.63
2023-03-16T11:08:22.299Z,11.14
2023-03-16T11:10:58.543Z,13.49
2023-03-16T11:13:35.957Z,17.25
2023-03-16T11:16:24.116Z,20.17
2023-03-16T11:18:58.948Z,20.53
2023-03-16T11:22:16.519Z,12.71
2023-03-16T11:24:52.865Z,12.44
2023-03-16T11:27:49.177Z,10.37
2023-03-16T11:30:35.385Z,9.86
2023-03-16T11:33:04.233Z,12.40
2023-03-16T11:36:01.146Z,10.84
2023-03-16T11:39:11.201Z,12.69
2023-03-16T11:42:39.526Z,15.68
2023-03-16T11:45:19.104Z,18.02
2023-03-16T11:48:25.101Z,19.24
2023-03-16T11:51:37.045Z,20.79
2023-03-16T11:54:28.408Z,22.23
2023-03-16T11:57:38.908Z,24.57
2023-03-16T12:00:15.059Z,26.06
2023-03-16T12:03:38.214Z,27.19
2023-03-16T12:06:24.490Z,28.61
2023-03-16T12:09:04.601Z,28.23
2023-03-16T12:11:42.445Z,28.37
2023-03-16T12:14:30.918Z,28.34
2023-03-16T12:17:21.201Z,29.64
2023-03-16T12:19:54.542Z,29.10
2023-03-16T12:22:41.461Z,25.91
2023-03-16T12:25:25.845Z,27.04
2023-03-16T12:27:57.092Z,27.55
2023-03-16T12:30:41.195Z,28.41
2023-03-16T12:33:46.544Z,29.63
2023-03-16T12:36:55.976Z,29.51
2023-03-16T12:39:51.634Z,26.51
2023-03-16T12:43:10.023Z,25.85
2023-03-16T12:45:49.754Z,25.67
2023-03-16T12:48:32.357Z,21.23
2023-03-16T12:51:05.166Z,23.11
2023-03-16T12:53:51.989Z,24.21
2023-03-16T12:56:53.991Z,25.41
2023-03-16T12:59:26.210Z,25.06
2023-03-16T13:01:59.870Z,24.94
2023-03-16T13:04:38.868Z,25.01
2023-03-16T13:07:19.832Z,20.82
2023-03-16T13:10:16.633Z,19.63
2023-03-16T13:12:46.314Z,19.43
2023-03-16T13:15:20.590Z,19.51
2023-03-16T13:18:09.998Z,20.57
2023-03-16T13:21:00.993Z,22.09
2023-03-16T13:24:26.012Z,23.06
2023-03-16T13:27:01.412Z,24.44
2023-03-16T13:29:32.740Z,25.51
2023-03-16T13:32:07.661Z,24.46
2023-03-16T13:34:58.844Z,24.09
2023-03-16T13:37:30.005Z,25.00
2023-03-16T13:40:01.886Z,24.92
2023-03-16T13:42:33.688Z,25.75
2023-03-16T13:45:15.629Z,22.74
2023-03-16T13:47:45.494Z,19.59
2023-03-16T13:50:16.109Z,17.94
2023-03-16T13:52:52.887Z,14.75
2023-03-16T13:55:34.788Z,13.04
2023-03-16T13:58:04.121Z,10.89
2023-03-16T14:00:37.327Z,9.57
2023-03-16T14:03:21.975Z,9.96
2023-03-16T14:05:49.681Z,10.70
2023-03-16T14:08:24.420Z,12.01
2023-03-16T14:10:59.809Z,13.63
2023-03-16T14:13:29.167Z,12.98
2023-03-16T14:16:18.371Z,15.04
2023-03-16T14:18:52.827Z,16.83
2023-03-16T14:21:26.280Z,16.85
2023-03-16T14:24:06.978Z,17.52
2023-03-16T14:26:48.461Z,19.04
2023-03-16T14:29:31.523Z,20.09
2023-03-16T14:32:03.397Z,21.04
2023-03-16T14:34:39.871Z,22.20
2023-03-16T14:37:12.333Z,23.03
2023-03-16T14:39:41.304Z,22.36
2023-03-16T14:42:29.672Z,19.66
2023-03-16T14:45:00.961Z,17.38
2023-03-16T14:47:42.461Z,15.13
2023-03-16T14:50:25.535Z,13.78
2023-03-16T14:52:57.392Z,13.13
2023-03-16T14:55:25.824Z,12.73
2023-03-16T14:57:53.402Z,12.46
2023-03-16T15:00:23.036Z,12.39
2023-03-16T15:03:15.390Z,11.05
2023-03-16T15:05:48.629Z,11.79
2023-03-16T15:08:33.747Z,12.81
2023-03-16T15:11:06.737Z,14.49
2023-03-16T15:13:35.211Z,16.46
2023-03-16T15:16:04.658Z,18.03
2023-03-16T15:18:33.925Z,19.00
2023-03-16T15:21:03.011Z,20.00
2023-03-16T15:23:31.363Z,21.21
2023-03-16T15:26:00.711Z,22.36
2023-03-16T15:28:28.722Z,23.16
2023-03-16T15:30:59.400Z,23.82
2023-03-16T15:33:27.606Z,24.95
2023-03-16T15:36:02.166Z,25.47
2023-03-16T15:38:39.853Z,26.11
2023-03-16T15:41:14.608Z,26.72
2023-03-16T15:43:42.060Z,26.71
2023-03-16T15:46:10.583Z,26.95
2023-03-16T15:48:38.704Z,27.23
2023-03-16T15:51:16.242Z,27.34
2023-03-16T15:54:05.014Z,27.76
2023-03-16T15:56:52.839Z,27.81
2023-03-16T15:59:22.310Z,27.92
2023-03-16T16:01:52.548Z,28.39
2023-03-16T16:04:25.028Z,28.37
2023-03-16T16:06:55.429Z,28.42
2023-03-16T16:09:23.481Z,28.45
2023-03-16T16:11:51.568Z,28.92
2023-03-16T16:14:26.606Z,29.13
2023-03-16T16:16:54.690Z,29.01
2023-03-16T16:19:22.115Z,28.81
2023-03-16T16:21:49.878Z,28.81
2023-03-16T16:24:18.580Z,28.97
2023-03-16T16:26:55.610Z,29.48
2023-03-16T16:29:32.181Z,30.15
2023-03-16T16:32:01.005Z,30.21
2023-03-16T16:34:28.741Z,30.33
2023-03-16T16:36:57.813Z,30.47
2023-03-16T16:39:25.523Z,30.84
2023-03-16T16:41:56.756Z,31.32
2023-03-16T16:44:33.833Z,31.70
2023-03-16T16:47:03.724Z,32.18
2023-03-16T16:49:31.583Z,32.07
2023-03-16T16:51:59.718Z,32.39
2023-03-16T16:54:32.166Z,32.80
2023-03-16T16:57:01.690Z,32.82
2023-03-16T16:59:37.011Z,32.94
2023-03-16T17:02:30.905Z,32.87
2023-03-16T17:04:58.773Z,32.82
2023-03-16T17:07:26.635Z,32.85
2023-03-16T17:09:54.284Z,32.95
2023-03-16T17:12:24.644Z,33.06
2023-03-16T17:14:52.286Z,33.34
2023-03-16T17:17:20.391Z,34.17
2023-03-16T17:19:48.578Z,33.79
2023-03-16T17:22:24.958Z,33.95
2023-03-16T17:24:54.110Z,34.54
2023-03-16T17:27:33.179Z,34.68
2023-03-16T17:30:00.812Z,34.53
2023-03-16T17:32:28.647Z,34.63
2023-03-16T17:34:56.404Z,34.49
2023-03-16T17:37:24.133Z,34.74
2023-03-16T17:39:52.737Z,34.76
2023-03-16T17:42:23.216Z,34.74
2023-03-16T17:44:53.310Z,35.03
2023-03-16T17:47:27.588Z,35.17
2023-03-16T17:49:57.156Z,35.18
2023-03-16T17:52:29.368Z,35.74
2023-03-16T17:54:57.359Z,35.75
2023-03-16T17:57:31.322Z,36.54
2023-03-16T18:00:01.921Z,36.18
2023-03-16T18:02:57.753Z,36.17
2023-03-16T18:05:31.279Z,36.08
2023-03-16T18:08:22.787Z,37.30
2023-03-16T18:11:01.122Z,37.32
2023-03-16T18:13:38.001Z,37.34
2023-03-16T18:16:07.797Z,38.56
2023-03-16T18:18:39.520Z,38.66
2023-03-16T18:21:07.261Z,38.30
2023-03-16T18:23:36.982Z,38.51
2023-03-16T18:26:06.390Z,38.32
2023-03-16T18:28:35.241Z,38.45
2023-03-16T18:31:05.275Z,38.38
2023-03-16T18:33:38.396Z,38.43
2023-03-16T18:36:18.328Z,38.89
2023-03-16T18:38:50.546Z,38.61
2023-03-16T18:41:25.292Z,39.77
2023-03-16T18:43:58.171Z,39.75
2023-03-16T18:46:35.583Z,39.71
2023-03-16T18:49:34.179Z,40.71
2023-03-16T18:52:01.861Z,40.50
2023-03-16T18:54:36.851Z,40.68
2023-03-16T18:57:14.463Z,40.60
2023-03-16T18:59:42.391Z,41.45
2023-03-16T19:02:39.773Z,40.90
2023-03-16T19:05:31.828Z,40.88
2023-03-16T19:07:59.937Z,41.33
2023-03-16T19:10:56.483Z,41.08
2023-03-16T19:13:26.368Z,40.45
2023-03-16T19:15:57.883Z,40.60
2023-03-16T19:18:26.348Z,40.70
2023-03-16T19:20:56.593Z,40.67
2023-03-16T19:23:31.063Z,40.57
2023-03-16T19:25:59.271Z,40.56
2023-03-16T19:28:34.858Z,41.14
2023-03-16T19:31:19.380Z,41.40
2023-03-16T19:33:48.402Z,41.62
2023-03-16T19:36:26.585Z,41.92
2023-03-16T19:38:54.483Z,42.74
2023-03-16T19:41:35.585Z,41.98
2023-03-16T19:44:26.407Z,42.63
2023-03-16T19:46:56.277Z,42.20
2023-03-16T19:49:27.214Z,42.42
2023-03-16T19:51:56.823Z,42.12
2023-03-16T19:54:34.005Z,43.26
2023-03-16T19:57:12.513Z,44.23
2023-03-16T19:59:41.924Z,43.94
2023-03-16T20:02:35.875Z,43.96
2023-03-16T20:05:03.953Z,43.91
2023-03-16T20:07:37.942Z,44.29
2023-03-16T20:10:12.323Z,44.07
2023-03-16T20:12:42.664Z,44.14
2023-03-16T20:15:21.068Z,44.28
2023-03-16T20:17:51.199Z,44.22
2023-03-16T20:20:29.735Z,43.73
2023-03-16T20:22:59.758Z,43.95
2023-03-16T20:25:32.748Z,44.96
2023-03-16T20:28:03.998Z,44.83
2023-03-16T20:30:32.270Z,45.17
2023-03-16T20:33:00.222Z,45.64
2023-03-16T20:35:32.527Z,45.98
2023-03-16T20:38:00.524Z,46.24
2023-03-16T20:40:28.418Z,46.15
2023-03-16T20:42:56.536Z,46.53
2023-03-16T20:45:30.614Z,46.80
2023-03-16T20:47:58.529Z,46.93
2023-03-16T20:50:31.016Z,47.29
2023-03-16T20:52:58.651Z,47.47
2023-03-16T20:55:29.441Z,47.83
2023-03-16T20:57:57.703Z,47.49
2023-03-16T21:00:33.322Z,47.75
2023-03-16T21:03:05.073Z,47.91
2023-03-16T21:05:32.545Z,47.76
2023-03-16T21:08:00.130Z,48.38
2023-03-16T21:10:28.442Z,48.78
2023-03-16T21:12:57.823Z,48.50
2023-03-16T21:15:30.589Z,49.28
2023-03-16T21:18:07.418Z,49.28
2023-03-16T21:20:36.775Z,50.14
2023-03-16T21:23:04.571Z,50.52
2023-03-16T21:25:38.613Z,51.21
2023-03-16T21:28:06.248Z,51.01
2023-03-16T21:30:39.883Z,51.53
2023-03-16T21:33:35.541Z,53.10
2023-03-16T21:36:07.236Z,53.64
2023-03-16T21:38:35.137Z,54.43
2023-03-16T21:41:02.387Z,55.22
2023-03-16T21:43:31.565Z,56.03
2023-03-16T21:45:59.701Z,56.08
2023-03-16T21:48:53.056Z,56.83
2023-03-16T21:51:27.972Z,56.23
2023-03-16T21:53:56.020Z,56.97
2023-03-16T21:56:26.190Z,57.77
2023-03-16T21:58:54.953Z,57.42
2023-03-16T22:01:30.444Z,57.36
2023-03-16T22:04:09.046Z,57.90
2023-03-16T22:06:36.798Z,58.50
2023-03-16T22:09:04.504Z,58.44
2023-03-16T22:11:32.207Z,58.83
2023-03-16T22:14:00.087Z,59.93
2023-03-16T22:16:34.983Z,60.38
2023-03-16T22:19:04.312Z,61.63
2023-03-16T22:21:41.285Z,63.51
2023-03-16T22:24:30.068Z,64.83
2023-03-16T22:26:58.129Z,64.39
2023-03-16T22:29:36.726Z,64.04
2023-03-16T22:32:18.341Z,64.48
2023-03-16T22:34:48.448Z,64.10
2023-03-16T22:37:24.223Z,63.54
2023-03-16T22:39:53.130Z,62.78
2023-03-16T22:42:35.882Z,62.43
2023-03-16T22:45:17.080Z,62.72
2023-03-16T22:47:44.887Z,62.06
2023-03-16T22:50:18.004Z,62.65
2023-03-16T22:52:50.167Z,63.05
2023-03-16T22:55:29.755Z,63.07
2023-03-16T22:58:30.339Z,63.06
2023-03-16T23:01:02.490Z,62.50
2023-03-16T23:03:30.302Z,62.17
2023-03-16T23:05:57.948Z,63.07
2023-03-16T23:08:26.778Z,62.93
2023-03-16T23:10:56.069Z,62.84
2023-03-16T23:13:25.609Z,62.22
2023-03-16T23:15:53.770Z,62.90
2023-03-16T23:18:25.458Z,63.79
2023-03-16T23:20:53.314Z,63.96
2023-03-16T23:23:21.144Z,64.18
2023-03-16T23:25:48.871Z,64.81
2023-03-16T23:28:23.119Z,65.00
2023-03-16T23:30:51.157Z,64.10
2023-03-16T23:33:18.507Z,65.16
2023-03-16T23:35:47.072Z,64.10
2023-03-16T23:38:14.444Z,64.07
2023-03-16T23:40:42.303Z,64.41
2023-03-16T23:43:09.810Z,64.01
2023-03-16T23:45:39.056Z,64.18
2023-03-16T23:48:13.966Z,65.06
2023-03-16T23:50:42.755Z,64.90
2023-03-16T23:53:17.622Z,64.40
2023-03-16T23:55:47.002Z,64.55
2023-03-16T23:58:16.322Z,64.79
